Pagina principale
METAR-TAF:

METAR-TAF

Aeroporti :

Grenchen, Svizzera

latitudine: 47-10-53N, longitudine: 007-24-59E, altezza: 430 m

Osservazione

Il bollettino è stato emesso 28 minuti fa, alle 05:20 UTC
Vento calmo
Temperature -2°C
Umidità 100%
Pressione 1024 hPa
Visibilità: 0100 m
nebbia che ghiaccia

METAR: LSZG 200520Z AUTO 00000KT 0100 FZFG VV000 M02/M02 Q1024

Ora: 06:48 (05:48 UTC)

Previsione

Il bollettino è stato emesso 23 minuti fa, alle 05:25 UTC
Previsione valida dal 20 alle 06 UTC al 20 alle 15 UTC
Vento 2 kt da direzioni variabili
Visibilità: 0200 m
ad un'altezza di 100 ft
nebbia che ghiaccia
Temporaneamente
dal 20 alle 06 UTC al 20 alle 08 UTC
Visibilità: 0500 m
ad un'altezza di 200 ft
Evoluzione graduale
dal 20 alle 08 UTC al 20 alle 10 UTC
Visibilità 10 km o più
nessuna nube inferiore a 1500 m e nessun cumulonembo

TAF: LSZG 200525Z 2006/2015 VRB02KT 0200 FZFG VV001 TEMPO 2006/2008 0500 VV002 BECMG 2008/2010 CAVOK

Osservazioni e previsioni meteorologiche di più di 4000 aeroporti (messaggi METAR e TAF).

Le stazioni disponibili sono rappresentate dai dischi gialli e rossi sulla carta.

Puntare il mouse per vedere il nome della stazione.

Clicca sopra per visualizzare le osservazioni e previsioni meteorologiche.

Per cambiare la mappa : fare clic sui pulsanti verdi con una croce nera per ingrandire, il pulsante verde con un trattino per diminuire, o sulla freccia verde per le mappe adiacenti.


METAR-TAF: